createdAt,value
2017-07-15T00:03:57.932Z,3.53
2017-07-15T00:08:59.698Z,3.83
2017-07-15T00:14:02.376Z,3.13
2017-07-15T00:19:04.860Z,3.17
2017-07-15T00:24:06.635Z,3.60
2017-07-15T00:29:08.405Z,3.43
2017-07-15T00:34:10.149Z,3.20
2017-07-15T00:39:12.687Z,3.03
2017-07-15T00:44:14.491Z,3.10
2017-07-15T00:49:16.288Z,3.00
2017-07-15T00:54:18.077Z,3.83
2017-07-15T00:59:20.486Z,3.20
2017-07-15T01:04:23.029Z,3.77
2017-07-15T01:09:25.263Z,3.20
2017-07-15T01:14:27.863Z,3.17
2017-07-15T01:19:30.051Z,3.70
2017-07-15T01:24:32.460Z,3.30
2017-07-15T01:29:34.252Z,2.90
2017-07-15T01:34:36.472Z,3.63
2017-07-15T01:39:38.794Z,2.50
2017-07-15T01:44:41.137Z,2.57
2017-07-15T01:49:43.259Z,2.70
2017-07-15T01:54:46.400Z,2.93
2017-07-15T01:59:49.859Z,3.60
2017-07-15T02:04:52.277Z,2.77
2017-07-15T02:09:54.399Z,3.10
2017-07-15T02:14:56.557Z,3.87
2017-07-15T02:19:58.912Z,3.10
2017-07-15T02:25:01.296Z,3.20
2017-07-15T02:30:03.788Z,2.97
2017-07-15T02:35:05.965Z,3.30
2017-07-15T02:40:08.391Z,2.97
2017-07-15T02:45:10.273Z,3.63
2017-07-15T02:50:12.639Z,3.33
2017-07-15T02:55:15.049Z,3.63
2017-07-15T03:00:17.349Z,3.70
2017-07-15T03:05:19.712Z,3.00
2017-07-15T03:10:23.899Z,3.70
2017-07-15T03:15:26.782Z,3.33
2017-07-15T03:20:29.178Z,3.27
2017-07-15T03:25:31.729Z,3.50
2017-07-15T03:30:37.128Z,3.37
2017-07-15T03:35:41.638Z,3.43
2017-07-15T03:40:48.943Z,4.23
2017-07-15T03:45:51.417Z,4.67
2017-07-15T03:50:53.842Z,3.83
2017-07-15T03:55:55.929Z,4.63
2017-07-15T04:00:57.679Z,3.97
2017-07-15T04:05:59.417Z,4.47
2017-07-15T04:11:01.316Z,4.53
2017-07-15T04:16:03.799Z,4.43
2017-07-15T04:21:09.624Z,4.73
2017-07-15T04:26:14.197Z,4.77
2017-07-15T04:31:17.862Z,5.83
2017-07-15T04:36:24.108Z,5.20
2017-07-15T04:41:26.090Z,6.00
2017-07-15T04:46:27.892Z,6.07
2017-07-15T04:51:29.671Z,5.67
2017-07-15T04:56:32.524Z,5.50
2017-07-15T05:01:34.326Z,6.50
2017-07-15T05:06:36.128Z,5.37
2017-07-15T05:11:38.191Z,6.10
2017-07-15T05:16:40.036Z,6.53
2017-07-15T05:21:42.892Z,6.20
2017-07-15T05:26:44.669Z,6.60
2017-07-15T05:31:46.428Z,7.93
2017-07-15T05:36:48.218Z,6.83
2017-07-15T05:41:50.035Z,6.53
2017-07-15T05:46:51.827Z,7.20
2017-07-15T05:51:53.655Z,6.10
2017-07-15T05:56:55.675Z,7.07
2017-07-15T06:02:00.477Z,8.40
2017-07-15T06:07:02.666Z,6.77
2017-07-15T06:12:04.424Z,6.57
2017-07-15T06:17:06.200Z,7.10
2017-07-15T06:22:08.264Z,6.50
2017-07-15T06:27:10.051Z,6.60
2017-07-15T06:32:11.801Z,4.90
2017-07-15T06:37:19.523Z,4.37
2017-07-15T06:42:21.675Z,4.97
2017-07-15T06:47:23.431Z,4.50
2017-07-15T06:52:25.317Z,4.80
2017-07-15T06:57:27.082Z,4.30
2017-07-15T07:02:29.574Z,3.50
2017-07-15T07:07:31.323Z,4.07
2017-07-15T07:12:33.040Z,3.40
2017-07-15T07:17:34.755Z,3.50
2017-07-15T07:22:36.443Z,3.40
2017-07-15T07:27:38.143Z,3.57
2017-07-15T07:32:40.615Z,3.30
2017-07-15T07:37:42.339Z,3.40
2017-07-15T07:42:44.075Z,3.33
2017-07-15T07:47:45.855Z,2.90
2017-07-15T07:52:47.586Z,2.90
2017-07-15T07:57:50.076Z,3.20
2017-07-15T08:02:51.853Z,2.30
2017-07-15T08:07:58.668Z,2.30
2017-07-15T08:13:02.101Z,2.70
2017-07-15T08:18:05.490Z,2.20
2017-07-15T08:23:07.328Z,2.47
2017-07-15T08:28:09.081Z,1.97
2017-07-15T08:33:15.210Z,2.60
2017-07-15T08:38:20.065Z,2.80
2017-07-15T08:43:22.056Z,2.50
2017-07-15T08:48:23.796Z,2.40
2017-07-15T08:53:28.251Z,2.30
2017-07-15T08:58:30.054Z,2.70
2017-07-15T09:03:32.084Z,2.10
2017-07-15T09:08:34.208Z,2.13
2017-07-15T09:13:37.318Z,2.40
2017-07-15T09:18:39.511Z,1.97
2017-07-15T09:23:41.380Z,2.20
2017-07-15T09:28:43.624Z,2.87
2017-07-15T09:33:46.528Z,2.40
2017-07-15T09:38:48.255Z,2.90
2017-07-15T09:43:50.039Z,2.40
2017-07-15T09:48:52.332Z,2.27
2017-07-15T09:53:54.362Z,2.10
2017-07-15T09:59:00.872Z,2.03
2017-07-15T10:04:03.095Z,3.33
2017-07-15T10:09:08.083Z,2.23
2017-07-15T10:14:10.129Z,2.20
2017-07-15T10:19:16.612Z,2.20
2017-07-15T10:24:20.822Z,1.70
2017-07-15T10:29:22.751Z,1.87
2017-07-15T10:34:28.269Z,2.70
2017-07-15T10:39:30.151Z,2.00
2017-07-15T10:44:34.444Z,2.10
2017-07-15T10:49:37.943Z,2.17
2017-07-15T10:54:43.176Z,1.90
2017-07-15T10:59:51.118Z,2.30
2017-07-15T11:04:53.887Z,2.00
2017-07-15T11:09:58.995Z,1.57
2017-07-15T11:15:00.820Z,1.93
2017-07-15T11:20:06.338Z,2.00
2017-07-15T11:25:08.267Z,2.30
2017-07-15T11:30:16.376Z,2.10
2017-07-15T11:35:18.388Z,2.07
2017-07-15T11:40:20.104Z,2.37
2017-07-15T11:45:22.642Z,1.90
2017-07-15T11:50:24.349Z,2.80
2017-07-15T11:55:26.068Z,2.10
2017-07-15T12:00:27.787Z,1.50
2017-07-15T12:05:30.236Z,2.27
2017-07-15T12:10:31.943Z,1.80
2017-07-15T12:15:36.086Z,1.77
2017-07-15T12:20:40.663Z,1.63
2017-07-15T12:25:42.881Z,1.80
2017-07-15T12:30:44.639Z,1.70
2017-07-15T12:35:46.392Z,1.67
2017-07-15T12:40:48.119Z,2.40
2017-07-15T12:45:49.960Z,1.73
2017-07-15T12:50:51.692Z,1.40
2017-07-15T12:55:53.399Z,1.17
2017-07-15T13:00:55.183Z,5.93
2017-07-15T13:05:56.880Z,17.67
2017-07-15T13:10:59.333Z,11.20
2017-07-15T13:16:01.046Z,1.27
2017-07-15T13:21:02.783Z,4.70
2017-07-15T13:26:04.524Z,16.83
2017-07-15T13:31:06.328Z,30.20
2017-07-15T13:36:08.789Z,11.70
2017-07-15T13:41:10.521Z,7.27
2017-07-15T13:46:12.997Z,21.43
2017-07-15T13:51:14.699Z,1.37
2017-07-15T13:56:16.967Z,1.93
2017-07-15T14:01:18.719Z,2.60
2017-07-15T14:06:20.448Z,1.70
2017-07-15T14:11:22.721Z,8.07
2017-07-15T14:16:25.208Z,4.23
2017-07-15T14:21:26.967Z,23.30
2017-07-15T14:26:29.487Z,21.53
2017-07-15T14:31:31.307Z,6.93
2017-07-15T14:36:33.048Z,4.40
2017-07-15T14:41:34.799Z,1.37
2017-07-15T14:46:36.533Z,1.23
2017-07-15T14:51:38.284Z,1.40
2017-07-15T14:56:40.013Z,1.47
2017-07-15T15:01:42.068Z,1.00
2017-07-15T15:06:43.822Z,1.33
2017-07-15T15:11:45.586Z,1.00
2017-07-15T15:16:48.051Z,1.10
2017-07-15T15:21:49.794Z,1.20
2017-07-15T15:26:52.237Z,0.90
2017-07-15T15:31:53.979Z,1.30
2017-07-15T15:36:55.700Z,1.30
2017-07-15T15:41:57.435Z,1.33
2017-07-15T15:46:59.172Z,1.00
2017-07-15T15:52:00.891Z,1.00
2017-07-15T15:57:02.672Z,1.00
2017-07-15T16:02:04.384Z,1.10
2017-07-15T16:07:06.109Z,1.00
2017-07-15T16:12:08.148Z,1.30
2017-07-15T16:17:09.894Z,1.87
2017-07-15T16:22:11.609Z,1.63
2017-07-15T16:27:13.634Z,2.40
2017-07-15T16:32:20.675Z,2.60
2017-07-15T16:37:22.502Z,0.93
2017-07-15T16:42:25.002Z,1.40
2017-07-15T16:47:26.743Z,1.40
2017-07-15T16:52:28.499Z,1.60
2017-07-15T16:57:30.247Z,1.60
2017-07-15T17:02:32.014Z,1.43
2017-07-15T17:07:33.759Z,1.80
2017-07-15T17:12:35.520Z,1.07
2017-07-15T17:17:38.022Z,1.40
2017-07-15T17:22:39.765Z,1.87
2017-07-15T17:27:42.649Z,1.37
2017-07-15T17:32:44.429Z,1.17
2017-07-15T17:37:46.224Z,1.23
2017-07-15T17:42:47.971Z,1.07
2017-07-15T17:47:49.744Z,1.00
2017-07-15T17:52:51.479Z,1.10
2017-07-15T17:57:53.224Z,1.90
2017-07-15T18:02:55.023Z,1.30
2017-07-15T18:07:56.779Z,1.30
2017-07-15T18:12:59.792Z,1.20
2017-07-15T18:18:01.842Z,1.80
2017-07-15T18:23:03.695Z,1.20
2017-07-15T18:28:05.580Z,1.20
2017-07-15T18:33:07.337Z,1.47
2017-07-15T18:38:09.066Z,1.20
2017-07-15T18:43:10.810Z,1.10
2017-07-15T18:48:13.514Z,1.20
2017-07-15T18:53:16.053Z,1.50
2017-07-15T18:58:17.783Z,1.23
2017-07-15T19:03:20.510Z,2.60
2017-07-15T19:08:22.234Z,1.00
2017-07-15T19:13:23.964Z,1.00
2017-07-15T19:18:25.736Z,1.57
2017-07-15T19:23:27.476Z,1.57
2017-07-15T19:28:29.233Z,1.27
2017-07-15T19:33:31.061Z,1.37
2017-07-15T19:38:32.832Z,1.60
2017-07-15T19:43:35.461Z,1.80
2017-07-15T19:48:37.238Z,1.67
2017-07-15T19:58:41.725Z,1.70
2017-07-15T20:03:44.501Z,1.83
2017-07-15T20:08:46.622Z,1.50
2017-07-15T20:13:48.790Z,2.03
2017-07-15T20:18:50.508Z,2.00
2017-07-15T20:23:52.277Z,1.30
2017-07-15T20:28:54.009Z,2.20
2017-07-15T20:33:56.502Z,1.57
2017-07-15T20:38:58.223Z,1.40
2017-07-15T20:44:00.703Z,1.83
2017-07-15T20:49:03.088Z,1.57
2017-07-15T20:54:09.884Z,1.50
2017-07-15T20:59:11.615Z,1.70
2017-07-15T21:04:13.366Z,1.83
2017-07-15T21:09:15.120Z,2.30
2017-07-15T21:14:16.854Z,2.53
2017-07-15T21:19:18.596Z,2.43
2017-07-15T21:24:20.447Z,2.53
2017-07-15T21:29:22.181Z,2.30
2017-07-15T21:34:23.995Z,2.30
2017-07-15T21:39:25.727Z,2.40
2017-07-15T21:44:27.536Z,2.30
2017-07-15T21:49:30.054Z,1.90
2017-07-15T21:54:31.816Z,2.63
2017-07-15T21:59:33.668Z,2.43
2017-07-15T22:04:36.208Z,2.97
2017-07-15T22:09:37.980Z,2.30
2017-07-15T22:14:39.754Z,2.00
2017-07-15T22:19:41.485Z,2.17
2017-07-15T22:24:43.266Z,2.23
2017-07-15T22:29:45.096Z,2.43
2017-07-15T22:34:46.938Z,2.80
2017-07-15T22:39:48.828Z,2.90
2017-07-15T22:44:50.967Z,2.80
2017-07-15T22:49:52.791Z,4.33
2017-07-15T22:54:54.561Z,3.97
2017-07-15T22:59:56.368Z,3.97
2017-07-15T23:04:58.223Z,3.70
2017-07-15T23:10:00.061Z,5.23
2017-07-15T23:15:01.895Z,4.10
2017-07-15T23:20:03.726Z,4.70
2017-07-15T23:25:05.660Z,5.40
2017-07-15T23:30:07.762Z,4.77
2017-07-15T23:35:09.582Z,4.97
2017-07-15T23:40:11.426Z,5.60
2017-07-15T23:45:13.279Z,5.10
2017-07-15T23:50:15.067Z,4.47
2017-07-15T23:55:16.899Z,3.70
